Venedocia, OH

6:32 AM EDT on September 20, 2014 (GMT -0400)
N1ICS - Ridge Township, OH | Change Station
CLOSE
Current Station
Personal Weather Station
Location: Van Wert, OH
Elevation: 784 ft
Nearby Weather Stations

Elev 784 ft 40.85 °N, 84.48 °W | Updated 1 minute ago

Clear
Clear
56.1 °F
Feels Like 56.1 °F
N
2.9
Wind Variable Wind from South
Gusts 6.0 mph

Today
High -- | Low -- °F
--% Chance of Precip.
Yesterday
High -- | Low -- °F
Precip. -- in
7:23 AM 7:38 PM
Waning Crescent, 13% visible
Pressure 30.04 in
Visibility 10.0 miles
Clouds Clear
Dew Point 51 °F
Humidity 84%
Rainfall 0.00 in
Snow Depth Not available.
UV 0 out of 12
Pollen 5.70 out of 12
Air Quality Not available.
Flu Activity Not available.
METAR KAOH 200953Z AUTO 19008KT 10SM CLR 16/11 A3005 RMK AO2 SLP172 T01560111

More Conditions Fewer Conditions

Pressure 30.04 in
Visibility 10.0 miles
Clouds Clear
Dew Point 51 °F
Humidity 84%
Rainfall 0.00 in
Snow Depth Not available.
UV 0 out of 12
Pollen 5.70 out of 12
Air Quality Not available.
Flu Activity Not available.
METAR KAOH 200953Z AUTO 19008KT 10SM CLR 16/11 A3005 RMK AO2 SLP172 T01560111

More Conditions Fewer Conditions

10-Day Weather Forecast

Almanac

Astronomy

Sep. 20, 2014 Rise Set
Actual Time 7:23 AM EDT 7:38 PM EDT
Civil Twilight 6:56 AM EDT 8:05 PM EDT
Nautical Twilight 6:24 AM EDT 8:37 PM EDT
Astronomical Twilight 5:51 AM EDT 9:10 PM EDT
Moon 4:01 AM EDT 5:42 PM EDT
Length of Visible Light 13h 09m
Length of Day
12h 14m
Tomorrow will be 2m 41s shorter.
Waning Crescent, 13% of the Moon is Illuminated
Today
Waning Crescent
Sep 24
New
Oct 1
First Quarter
Oct 8
Full
Oct 15
Last Quarter

Today's Extremes

State Highs State Lows

Community

WunderPhotos

Upload Photos

1,754,827 photos uploaded!

WunderBlogs® & News

Nearby

Snow Depth

Station Depth Elevation
No new snow has been reported.

Earthquake Activity

City Distance Mag. Time & Date
No recent earthquake activity has been reported nearby.
Minimum magnitude displayed is 2.5.

Coastal Water Temperatures

Place Temperature
No Stations Reporting

Nearby Weather Stations